Time;durP1;ratioP1;P1;durP2;ratioP2;P2;SDS_P1;SDS_P2;PMS_P1;PMS_P2;Temp;Humidity;BMP_temperature;BMP_pressure;BME280_temperature;BME280_humidity;BME280_pressure;Samples;Min_cycle;Max_cycle;Signal;HPM_P1;HPM_P2
2021/11/09 00:00:08;;;;;;;24.10;8.37;;;;;;;;;;6204976;23;20187;-90
2021/11/09 00:03:18;;;;;;;69.20;7.87;;;;;;;;;;6208234;23;20143;-90
2021/11/09 00:06:26;;;;;;;57.53;8.07;;;;;;;;;;6207384;23;20175;-91
2021/11/09 00:09:44;;;;;;;29.20;7.73;;;;;;;;;;6205919;23;20159;-88
2021/11/09 00:13:00;;;;;;;52.87;8.47;;;;;;;;;;6205477;23;20171;-89
2021/11/09 00:16:07;;;;;;;70.73;8.80;;;;;;;;;;6204804;23;20253;-89
2021/11/09 00:19:18;;;;;;;92.47;9.53;;;;;;;;;;6207202;23;20196;-90
2021/11/09 00:22:30;;;;;;;64.70;7.63;;;;;;;;;;6205879;23;20208;-90
2021/11/09 00:25:36;;;;;;;74.93;9.53;;;;;;;;;;6203852;23;20224;-90
2021/11/09 00:28:41;;;;;;;39.80;8.93;;;;;;;;;;6203250;23;20241;-90
2021/11/09 00:31:46;;;;;;;32.27;8.07;;;;;;;;;;6205466;23;20188;-90
2021/11/09 00:34:54;;;;;;;41.10;9.50;;;;;;;;;;6205913;23;20160;-89
2021/11/09 00:38:01;;;;;;;75.17;9.67;;;;;;;;;;6205613;23;20151;-89
2021/11/09 00:41:06;;;;;;;37.60;8.53;;;;;;;;;;6204287;23;20152;-88
2021/11/09 00:44:16;;;;;;;60.03;9.17;;;;;;;;;;6205308;23;20152;-88
2021/11/09 00:47:23;;;;;;;55.07;9.37;;;;;;;;;;6205902;23;20167;-89
2021/11/09 00:50:30;;;;;;;23.53;8.17;;;;;;;;;;6204021;23;20164;-90
2021/11/09 00:53:39;;;;;;;27.17;7.90;;;;;;;;;;6203940;23;20168;-88
2021/11/09 00:56:44;;;;;;;22.53;7.23;;;;;;;;;;6205322;23;20258;-89
2021/11/09 00:59:51;;;;;;;27.93;7.40;;;;;;;;;;6205163;23;20493;-90
2021/11/09 01:03:02;;;;;;;16.37;6.37;;;;;;;;;;6207000;23;20176;-89
2021/11/09 01:06:09;;;;;;;38.27;7.37;;;;;;;;;;6189525;23;20223;-90
2021/11/09 01:09:15;;;;;;;30.57;8.00;;;;;;;;;;6204007;23;20167;-87
2021/11/09 01:12:22;;;;;;;47.17;7.70;;;;;;;;;;6217965;23;20191;-88
2021/11/09 01:15:28;;;;;;;51.67;8.80;;;;;;;;;;6218341;23;20186;-90
2021/11/09 01:18:35;;;;;;;68.73;8.50;;;;;;;;;;6219313;23;20170;-88
2021/11/09 01:21:45;;;;;;;79.97;8.40;;;;;;;;;;6217609;23;20191;-89
2021/11/09 01:24:51;;;;;;;97.07;9.47;;;;;;;;;;6219849;23;20155;-90
2021/11/09 01:27:56;;;;;;;59.50;8.20;;;;;;;;;;6218781;23;20221;-90
2021/11/09 01:31:02;;;;;;;49.87;8.33;;;;;;;;;;6220019;23;20171;-89
2021/11/09 01:34:07;;;;;;;20.73;7.30;;;;;;;;;;6220166;23;20183;-89
2021/11/09 02:18:12;;;;;;;11.80;5.47;;;;;;;;;;6185078;22;20613;-91
2021/11/09 02:21:20;;;;;;;33.00;6.67;;;;;;;;;;6211930;23;20163;-89
2021/11/09 02:24:25;;;;;;;16.57;6.13;;;;;;;;;;6213076;23;20211;-91
2021/11/09 02:27:30;;;;;;;18.00;6.30;;;;;;;;;;6213227;23;20175;-88
2021/11/09 02:30:35;;;;;;;14.50;6.13;;;;;;;;;;6213062;23;20167;-91
2021/11/09 02:33:41;;;;;;;20.80;6.77;;;;;;;;;;6213490;23;20262;-89
2021/11/09 02:36:47;;;;;;;19.53;6.90;;;;;;;;;;6212408;23;20257;-91
2021/11/09 02:39:53;;;;;;;14.77;5.70;;;;;;;;;;6212244;23;20183;-91
2021/11/09 02:43:00;;;;;;;15.73;6.00;;;;;;;;;;6213957;23;20508;-90
2021/11/09 02:49:31;;;;;;;16.27;5.77;;;;;;;;;;6213225;23;20191;-90
2021/11/09 02:52:45;;;;;;;15.17;6.03;;;;;;;;;;6212883;23;20171;-89
2021/11/09 02:55:54;;;;;;;12.83;5.80;;;;;;;;;;6213437;23;20183;-90
2021/11/09 02:59:04;;;;;;;11.57;5.40;;;;;;;;;;6212756;23;20614;-89
2021/11/09 03:02:17;;;;;;;16.67;7.00;;;;;;;;;;6213661;23;20610;-89
2021/11/09 03:05:27;;;;;;;13.13;5.73;;;;;;;;;;6216406;23;20230;-89
2021/11/09 03:08:36;;;;;;;11.63;5.93;;;;;;;;;;6212027;23;20596;-89
2021/11/09 03:11:48;;;;;;;14.70;6.63;;;;;;;;;;6213309;23;20175;-89
2021/11/09 03:14:55;;;;;;;43.90;10.60;;;;;;;;;;6212494;23;20171;-92
2021/11/09 03:18:03;;;;;;;15.37;7.00;;;;;;;;;;6212312;23;20170;-90
2021/11/09 03:45:50;;;;;;;14.83;6.17;;;;;;;;;;6103357;23;20179;-89
2021/11/09 03:48:55;;;;;;;14.93;6.70;;;;;;;;;;6213083;23;20218;-91
2021/11/09 03:52:02;;;;;;;14.07;6.40;;;;;;;;;;6210947;23;20215;-92
2021/11/09 03:55:08;;;;;;;12.23;5.63;;;;;;;;;;6210952;23;20167;-90
2021/11/09 03:58:21;;;;;;;12.10;5.97;;;;;;;;;;6210015;23;20607;-87
2021/11/09 04:01:37;;;;;;;13.07;5.40;;;;;;;;;;6217855;23;20246;-89
2021/11/09 04:05:01;;;;;;;14.23;5.20;;;;;;;;;;6237045;23;20642;-89
2021/11/09 04:11:43;;;;;;;16.07;5.27;;;;;;;;;;6219652;23;20164;-89
2021/11/09 04:15:11;;;;;;;17.53;5.53;;;;;;;;;;6215983;23;20167;-89
2021/11/09 05:01:19;;;;;;;9.43;4.57;;;;;;;;;;6169917;23;20168;-91
2021/11/09 05:11:13;;;;;;;7.37;4.40;;;;;;;;;;6175450;23;20157;-91
2021/11/09 05:14:18;;;;;;;8.50;3.90;;;;;;;;;;6173447;23;20164;-90
2021/11/09 05:17:24;;;;;;;8.87;4.07;;;;;;;;;;6172388;23;20200;-89
2021/11/09 05:20:29;;;;;;;9.70;4.17;;;;;;;;;;6174197;23;20172;-88
2021/11/09 05:23:35;;;;;;;7.87;3.90;;;;;;;;;;6172885;23;20216;-90
2021/11/09 05:26:42;;;;;;;9.50;4.70;;;;;;;;;;6170396;23;20168;-90
2021/11/09 05:29:47;;;;;;;7.03;4.47;;;;;;;;;;6169783;23;20174;-88
2021/11/09 05:32:58;;;;;;;9.13;4.40;;;;;;;;;;6170762;23;20155;-91
2021/11/09 05:36:06;;;;;;;9.10;4.60;;;;;;;;;;6170162;23;20326;-87
2021/11/09 05:39:16;;;;;;;10.57;4.90;;;;;;;;;;6169833;23;20247;-91
2021/11/09 05:42:23;;;;;;;8.83;5.10;;;;;;;;;;6172276;23;20153;-91
2021/11/09 05:45:28;;;;;;;12.60;4.60;;;;;;;;;;6170161;23;20612;-89
2021/11/09 05:48:33;;;;;;;7.23;4.20;;;;;;;;;;6171432;23;20237;-91
2021/11/09 05:51:39;;;;;;;10.07;4.87;;;;;;;;;;6170937;23;20200;-89
2021/11/09 05:54:45;;;;;;;10.33;4.80;;;;;;;;;;6170998;23;20169;-91
2021/11/09 05:57:51;;;;;;;8.43;4.67;;;;;;;;;;6169821;23;20236;-90
2021/11/09 06:00:57;;;;;;;8.73;4.43;;;;;;;;;;6169177;23;20169;-91
2021/11/09 06:04:02;;;;;;;12.83;4.77;;;;;;;;;;6169637;23;20180;-89
2021/11/09 06:07:09;;;;;;;11.70;5.20;;;;;;;;;;6170562;23;20174;-88
2021/11/09 06:10:14;;;;;;;8.13;4.37;;;;;;;;;;6170511;23;20168;-87
2021/11/09 06:13:20;;;;;;;9.67;4.73;;;;;;;;;;6169315;23;20221;-89
2021/11/09 06:16:28;;;;;;;11.40;5.33;;;;;;;;;;6171797;23;20216;-89
2021/11/09 06:19:34;;;;;;;11.50;5.00;;;;;;;;;;6171352;23;20240;-89
2021/11/09 06:22:39;;;;;;;12.87;4.67;;;;;;;;;;6168978;23;20184;-88
2021/11/09 06:25:45;;;;;;;9.43;5.07;;;;;;;;;;6168568;23;20215;-88
2021/11/09 06:28:56;;;;;;;8.57;4.20;;;;;;;;;;6169199;23;20293;-90
2021/11/09 06:32:02;;;;;;;7.50;3.97;;;;;;;;;;6169367;23;20168;-90
2021/11/09 06:35:42;;;;;;;12.20;4.60;;;;;;;;;;6170700;23;20260;-87
2021/11/09 06:38:47;;;;;;;6.30;3.50;;;;;;;;;;6168063;23;20164;-89
2021/11/09 06:41:53;;;;;;;9.90;3.43;;;;;;;;;;6170749;23;20169;-89
2021/11/09 06:45:02;;;;;;;12.67;5.33;;;;;;;;;;6171788;23;20169;-88
2021/11/09 06:48:07;;;;;;;16.00;4.33;;;;;;;;;;6168883;23;20172;-89
2021/11/09 06:51:19;;;;;;;9.17;4.47;;;;;;;;;;6178113;23;20238;-89
2021/11/09 06:54:24;;;;;;;8.93;4.30;;;;;;;;;;6181193;23;20184;-87
2021/11/09 06:57:29;;;;;;;11.50;4.97;;;;;;;;;;6179470;23;20195;-89
2021/11/09 07:00:36;;;;;;;11.23;4.23;;;;;;;;;;6180152;23;20188;-90
2021/11/09 07:03:41;;;;;;;7.83;3.87;;;;;;;;;;6177915;23;20171;-87
2021/11/09 07:06:46;;;;;;;7.83;4.03;;;;;;;;;;6181297;23;20169;-89
2021/11/09 07:09:51;;;;;;;7.70;3.87;;;;;;;;;;6179296;23;20171;-87
2021/11/09 07:12:56;;;;;;;6.73;4.07;;;;;;;;;;6180777;23;20703;-90
2021/11/09 07:16:03;;;;;;;9.60;4.13;;;;;;;;;;6185507;23;20659;-89
2021/11/09 07:19:09;;;;;;;10.47;4.67;;;;;;;;;;6186680;23;20172;-88
2021/11/09 07:25:35;;;;;;;11.03;4.80;;;;;;;;;;6188676;23;20180;-90
2021/11/09 07:28:41;;;;;;;8.70;4.27;;;;;;;;;;6186054;23;20187;-89
2021/11/09 07:31:49;;;;;;;10.70;4.97;;;;;;;;;;6185435;23;20176;-88
2021/11/09 07:35:40;;;;;;;8.80;4.63;;;;;;;;;;6184644;23;20167;-88
2021/11/09 07:38:47;;;;;;;12.17;4.80;;;;;;;;;;6184947;23;20172;-89
2021/11/09 07:41:52;;;;;;;11.60;5.10;;;;;;;;;;6184888;23;20167;-88
2021/11/09 07:44:58;;;;;;;10.23;4.50;;;;;;;;;;6188713;23;20168;-90
2021/11/09 07:48:12;;;;;;;6.73;3.67;;;;;;;;;;6189449;23;20228;-88
2021/11/09 07:54:45;;;;;;;8.23;4.27;;;;;;;;;;6188278;23;20171;-89
2021/11/09 07:57:54;;;;;;;11.67;4.40;;;;;;;;;;6185046;23;20200;-90
2021/11/09 08:01:07;;;;;;;9.77;4.50;;;;;;;;;;6184350;23;20613;-87
2021/11/09 08:04:23;;;;;;;6.47;4.13;;;;;;;;;;6187266;23;20247;-88
2021/11/09 08:10:49;;;;;;;9.93;4.00;;;;;;;;;;6187306;23;20188;-89
2021/11/09 08:13:56;;;;;;;8.53;3.93;;;;;;;;;;6188016;23;20164;-89
2021/11/09 08:17:01;;;;;;;11.07;4.40;;;;;;;;;;6188286;23;20215;-89
2021/11/09 08:20:08;;;;;;;10.23;4.10;;;;;;;;;;6183314;23;20215;-90
2021/11/09 08:23:14;;;;;;;7.07;3.97;;;;;;;;;;6184059;23;20167;-89
2021/11/09 08:26:22;;;;;;;8.50;4.50;;;;;;;;;;6183814;23;20243;-91
2021/11/09 08:29:28;;;;;;;7.67;4.13;;;;;;;;;;6188054;23;20192;-90
2021/11/09 08:32:34;;;;;;;9.87;4.30;;;;;;;;;;6188606;23;20167;-89
2021/11/09 16:10:19;;;;;;;7.60;3.37;;;;;;;;;;6212120;22;20252;-90
2021/11/09 16:13:27;;;;;;;8.00;4.07;;;;;;;;;;6214661;23;20179;-92
2021/11/09 16:16:33;;;;;;;8.93;2.83;;;;;;;;;;6214140;23;20171;-90
2021/11/09 16:19:39;;;;;;;8.37;3.40;;;;;;;;;;6214153;23;20171;-90
2021/11/09 16:22:45;;;;;;;7.17;3.10;;;;;;;;;;6214549;23;20187;-89
2021/11/09 16:25:56;;;;;;;7.53;3.77;;;;;;;;;;6217489;23;20167;-90
2021/11/09 16:29:01;;;;;;;20.43;5.17;;;;;;;;;;6214262;23;20187;-90
2021/11/09 16:32:08;;;;;;;18.57;4.27;;;;;;;;;;6217579;23;20211;-92
2021/11/09 16:38:39;;;;;;;10.70;3.93;;;;;;;;;;6212962;23;20270;-91
2021/11/09 16:41:47;;;;;;;14.60;5.47;;;;;;;;;;6218828;23;20208;-90
2021/11/09 16:48:12;;;;;;;10.43;4.47;;;;;;;;;;6218175;23;20513;-90
2021/11/09 16:51:21;;;;;;;11.27;4.60;;;;;;;;;;6217557;23;20223;-90
2021/11/09 16:54:50;;;;;;;17.73;5.10;;;;;;;;;;6218479;23;20174;-91
2021/11/09 17:08:57;;;;;;;9.87;3.83;;;;;;;;;;6111612;23;20190;-93
2021/11/09 18:20:12;;;;;;;17.27;7.60;;;;;;;;;;6199820;23;20190;-89
2021/11/09 18:23:19;;;;;;;15.47;4.60;;;;;;;;;;6214160;23;20171;-89
2021/11/09 18:26:25;;;;;;;11.50;4.37;;;;;;;;;;6215258;23;20471;-91
2021/11/09 18:29:32;;;;;;;10.23;4.17;;;;;;;;;;6214509;23;20166;-90
2021/11/09 18:32:38;;;;;;;11.00;4.20;;;;;;;;;;6213194;23;20162;-89
2021/11/09 18:35:51;;;;;;;8.70;4.40;;;;;;;;;;6215918;23;20163;-89
2021/11/09 18:38:58;;;;;;;14.87;4.60;;;;;;;;;;6213397;23;20263;-89
2021/11/09 18:42:06;;;;;;;11.10;4.50;;;;;;;;;;6212705;23;20171;-89
2021/11/09 18:45:16;;;;;;;13.97;6.57;;;;;;;;;;6212433;23;20219;-88
2021/11/09 18:48:27;;;;;;;15.30;6.90;;;;;;;;;;6216708;23;20232;-89
2021/11/09 18:51:40;;;;;;;12.13;5.50;;;;;;;;;;6214959;23;20683;-91
2021/11/09 18:54:47;;;;;;;12.90;6.07;;;;;;;;;;6213229;23;20218;-91
2021/11/09 18:57:54;;;;;;;15.20;6.40;;;;;;;;;;6214467;23;20199;-90
2021/11/09 19:01:00;;;;;;;13.47;6.47;;;;;;;;;;6213942;23;20179;-90
2021/11/09 19:04:06;;;;;;;11.33;5.37;;;;;;;;;;6211650;23;20583;-89
2021/11/09 19:14:13;;;;;;;12.10;5.70;;;;;;;;;;6207124;23;20211;-91
2021/11/09 19:50:17;;;;;;;15.33;6.87;;;;;;;;;;6204234;22;20663;-91
2021/11/09 19:53:26;;;;;;;15.27;5.93;;;;;;;;;;6214783;23;20167;-90
2021/11/09 23:22:54;;;;;;;9.83;4.00;;;;;;;;;;6212787;22;20215;-91
2021/11/09 23:26:15;;;;;;;12.90;4.37;;;;;;;;;;6213250;23;20169;-90
2021/11/09 23:29:24;;;;;;;9.40;4.63;;;;;;;;;;6214368;23;20255;-90
2021/11/09 23:32:32;;;;;;;12.93;5.03;;;;;;;;;;6212133;23;20485;-91
2021/11/09 23:44:34;;;;;;;12.57;5.00;;;;;;;;;;6230957;23;20183;-91
2021/11/09 23:47:42;;;;;;;11.17;4.97;;;;;;;;;;6211912;23;20174;-91
2021/11/09 23:50:50;;;;;;;9.70;4.33;;;;;;;;;;6212071;23;20167;-91
2021/11/09 23:57:29;;;;;;;21.20;5.10;;;;;;;;;;6213310;23;20171;-90
